Time;durP1;ratioP1;P1;durP2;ratioP2;P2;SDS_P1;SDS_P2;PMS_P1;PMS_P2;Temp;Humidity;BMP_temperature;BMP_pressure;BME280_temperature;BME280_humidity;BME280_pressure;Samples;Min_cycle;Max_cycle;Signal;HPM_P1;HPM_P2
2023/01/02 00:01:41;;;;;;;14.43;3.90;;;9.30;99.90;;;;;;4872084;29;20044;-80
2023/01/02 00:04:07;;;;;;;12.77;4.50;;;9.40;99.90;;;;;;4898381;29;20134;-81
2023/01/02 00:06:36;;;;;;;10.02;3.97;;;9.40;99.90;;;;;;4883953;29;20084;-81
2023/01/02 00:09:03;;;;;;;10.40;4.32;;;9.40;99.90;;;;;;4878936;29;20040;-81
2023/01/02 00:11:29;;;;;;;12.65;4.75;;;9.40;99.90;;;;;;4876532;29;20040;-81
2023/01/02 00:13:55;;;;;;;11.32;4.35;;;9.40;99.90;;;;;;4898522;29;20048;-80
2023/01/02 00:16:21;;;;;;;12.57;5.57;;;9.40;99.90;;;;;;4870636;29;20058;-80
2023/01/02 00:18:47;;;;;;;;;;;9.40;99.90;;;;;;4893477;29;20110;-81
2023/01/02 00:21:13;;;;;;;12.75;5.50;;;9.50;99.90;;;;;;4892536;29;20166;-80
2023/01/02 00:23:42;;;;;;;12.43;4.97;;;9.50;99.90;;;;;;4896525;29;20042;-80
2023/01/02 00:26:08;;;;;;;9.90;5.38;;;9.50;99.90;;;;;;4888070;29;20044;-80
2023/01/02 00:28:35;;;;;;;9.80;5.68;;;9.60;99.90;;;;;;4901591;29;20068;-80
2023/01/02 00:31:04;;;;;;;;;;;9.60;99.90;;;;;;4896511;29;20496;-80
2023/01/02 00:33:30;;;;;;;12.85;5.72;;;9.70;99.90;;;;;;4897507;29;19919;-80
2023/01/02 00:35:56;;;;;;;10.43;5.68;;;9.70;99.90;;;;;;4897091;29;20050;-82
2023/01/02 00:38:22;;;;;;;9.93;4.93;;;9.80;99.90;;;;;;4868192;29;20048;-80
2023/01/02 00:40:47;;;;;;;13.90;5.43;;;9.90;99.90;;;;;;4881687;29;20032;-80
2023/01/02 00:43:13;;;;;;;9.33;5.27;;;9.90;99.90;;;;;;4874331;29;20288;-80
2023/01/02 00:45:39;;;;;;;13.07;6.20;;;9.90;99.90;;;;;;4884430;29;20040;-80
2023/01/02 00:48:04;;;;;;;12.52;5.72;;;9.90;99.90;;;;;;4871200;29;20298;-81
2023/01/02 00:50:30;;;;;;;13.03;6.40;;;9.90;99.90;;;;;;4887514;29;20044;-80
2023/01/02 00:52:56;;;;;;;11.07;5.30;;;10.00;99.90;;;;;;4888677;29;20303;-81
2023/01/02 00:55:21;;;;;;;10.88;6.03;;;9.90;99.90;;;;;;4870072;29;20055;-81
2023/01/02 00:57:47;;;;;;;9.33;4.93;;;10.00;99.90;;;;;;4878199;29;20111;-81
2023/01/02 01:00:14;;;;;;;9.43;5.17;;;10.00;99.90;;;;;;4878229;29;20351;-80
2023/01/02 01:02:39;;;;;;;11.15;5.70;;;10.10;99.90;;;;;;4869650;29;20284;-81
2023/01/02 01:05:05;;;;;;;9.30;4.93;;;10.10;99.90;;;;;;4872838;29;20095;-81
2023/01/02 01:07:31;;;;;;;9.57;5.05;;;10.20;99.90;;;;;;4893833;29;20364;-80
2023/01/02 01:09:57;;;;;;;8.03;4.30;;;10.20;99.90;;;;;;4884036;29;20039;-81
2023/01/02 01:12:22;;;;;;;10.13;5.17;;;10.20;99.90;;;;;;4883236;29;20833;-81
2023/01/02 01:14:48;;;;;;;8.85;5.03;;;10.30;99.90;;;;;;4869611;29;20276;-81
2023/01/02 01:17:14;;;;;;;9.60;4.93;;;10.30;99.90;;;;;;4887165;29;20430;-81
2023/01/02 01:19:39;;;;;;;10.65;4.82;;;10.20;99.90;;;;;;4895663;29;20284;-81
2023/01/02 01:22:05;;;;;;;8.93;5.68;;;10.20;99.90;;;;;;4895104;29;20035;-81
2023/01/02 01:24:31;;;;;;;11.70;5.57;;;10.20;99.90;;;;;;4885524;29;20040;-81
2023/01/02 01:26:56;;;;;;;14.60;5.40;;;10.20;99.90;;;;;;4879540;29;20288;-81
2023/01/02 01:29:22;;;;;;;15.13;6.82;;;10.20;99.90;;;;;;4870753;29;20440;-81
2023/01/02 01:31:48;;;;;;;11.43;5.03;;;10.20;99.90;;;;;;4888608;29;20086;-81
2023/01/02 01:34:14;;;;;;;11.47;6.10;;;10.10;99.90;;;;;;4896036;29;20042;-81
2023/01/02 01:36:40;;;;;;;12.93;5.95;;;10.20;99.90;;;;;;4895914;29;20284;-81
2023/01/02 01:39:05;;;;;;;10.00;5.63;;;10.20;99.90;;;;;;4910176;29;20042;-81
2023/01/02 01:41:31;;;;;;;15.13;6.82;;;10.20;99.90;;;;;;4910446;29;20497;-81
2023/01/02 01:43:59;;;;;;;13.95;6.72;;;10.20;99.90;;;;;;4886938;29;20039;-81
2023/01/02 01:46:33;;;;;;;14.82;7.10;;;10.20;99.90;;;;;;4894855;29;20522;-81
2023/01/02 01:49:10;;;;;;;13.52;7.07;;;10.30;99.90;;;;;;4894367;29;20036;-81
2023/01/02 01:51:50;;;;;;;12.82;6.97;;;10.30;99.90;;;;;;4900514;29;20040;-82
2023/01/02 01:54:24;;;;;;;12.93;6.70;;;10.30;99.90;;;;;;4897263;29;20027;-82
2023/01/02 01:56:55;;;;;;;13.27;7.13;;;10.40;99.90;;;;;;4897206;29;20119;-82
2023/01/02 01:59:21;;;;;;;15.70;8.50;;;10.40;99.90;;;;;;4897669;29;20065;-82
2023/01/02 02:01:48;;;;;;;15.13;7.45;;;10.40;99.90;;;;;;4894446;29;20040;-87
2023/01/02 02:04:16;;;;;;;14.88;7.43;;;10.50;99.90;;;;;;4890380;29;20489;-87
2023/01/02 02:06:42;;;;;;;13.73;7.63;;;10.50;99.90;;;;;;4882738;29;20393;-87
2023/01/02 02:09:33;;;;;;;14.57;7.53;;;10.60;99.90;;;;;;4893918;29;20036;-87
2023/01/02 02:12:00;;;;;;;14.25;7.50;;;10.60;99.90;;;;;;4896127;29;20138;-87
2023/01/02 02:14:25;;;;;;;13.27;7.38;;;10.60;99.90;;;;;;4868546;29;20123;-87
2023/01/02 02:17:21;;;;;;;15.13;8.38;;;10.70;99.90;;;;;;4892533;29;20082;-87
2023/01/02 02:19:52;;;;;;;14.60;8.02;;;10.60;99.90;;;;;;4896369;29;20040;-87
2023/01/02 02:22:55;;;;;;;14.70;7.30;;;10.60;99.90;;;;;;4894459;29;20098;-87
2023/01/02 02:25:27;;;;;;;13.23;5.97;;;10.60;99.90;;;;;;4894723;29;20063;-87
2023/01/02 02:28:18;;;;;;;10.57;7.05;;;10.70;99.90;;;;;;4894905;29;20044;-87
2023/01/02 02:31:11;;;;;;;14.70;7.05;;;10.80;99.90;;;;;;4892561;29;20036;-87
2023/01/02 02:33:56;;;;;;;13.85;8.15;;;10.80;99.90;;;;;;4892177;29;20068;-87
2023/01/02 02:36:41;;;;;;;12.60;7.45;;;10.80;99.90;;;;;;4894765;29;20044;-87
2023/01/02 02:39:32;;;;;;;13.18;7.95;;;10.80;99.90;;;;;;4895732;29;20430;-87
2023/01/02 02:42:27;;;;;;;13.02;8.20;;;10.70;99.90;;;;;;4897658;29;20044;-87
2023/01/02 02:45:14;;;;;;;14.25;7.65;;;10.80;99.90;;;;;;4904723;29;20051;-87
2023/01/02 02:48:01;;;;;;;13.45;7.53;;;10.80;99.90;;;;;;4895704;29;20075;-88
2023/01/02 02:50:41;;;;;;;11.30;6.80;;;10.80;99.90;;;;;;4900079;29;20051;-88
2023/01/02 02:53:39;;;;;;;11.95;7.18;;;10.90;99.90;;;;;;4893939;29;20071;-87
2023/01/02 02:56:07;;;;;;;11.80;6.90;;;10.90;99.90;;;;;;4899266;29;20052;-88
2023/01/02 02:58:34;;;;;;;13.05;7.50;;;10.90;99.90;;;;;;4911420;29;20428;-88
2023/01/02 03:01:11;;;;;;;14.68;8.65;;;10.90;99.90;;;;;;4893461;29;20043;-88
2023/01/02 03:03:37;;;;;;;15.70;8.68;;;10.90;99.90;;;;;;4891499;29;20047;-88
2023/01/02 03:06:11;;;;;;;13.37;7.87;;;10.90;99.90;;;;;;4887144;29;20048;-88
2023/01/02 03:08:41;;;;;;;15.27;7.43;;;10.90;99.90;;;;;;4916446;29;20395;-87
2023/01/02 03:11:08;;;;;;;17.85;9.45;;;10.90;99.90;;;;;;4913633;29;20051;-87
2023/01/02 03:13:52;;;;;;;13.55;7.55;;;10.90;99.90;;;;;;4882213;29;20052;-87
2023/01/02 03:16:38;;;;;;;12.90;7.95;;;11.00;99.90;;;;;;4903553;29;20052;-87
2023/01/02 03:19:36;;;;;;;12.60;7.68;;;10.90;99.90;;;;;;4900475;29;20039;-88
2023/01/02 03:22:07;;;;;;;;;;;10.90;99.90;;;;;;4857388;29;20386;-88
2023/01/02 03:24:35;;;;;;;15.40;7.40;;;11.00;99.90;;;;;;4898659;29;20385;-88
2023/01/02 03:27:05;;;;;;;13.55;7.90;;;10.90;99.90;;;;;;4885970;29;20044;-88
2023/01/02 03:29:42;;;;;;;12.32;6.38;;;10.90;99.90;;;;;;4894683;29;20452;-87
2023/01/02 03:32:22;;;;;;;13.63;7.28;;;11.00;99.90;;;;;;4907197;29;20043;-87
2023/01/02 03:34:49;;;;;;;15.90;7.85;;;11.00;99.90;;;;;;4896847;29;20036;-87
2023/01/02 03:37:22;;;;;;;13.82;7.25;;;11.00;99.90;;;;;;4902397;29;20105;-87
2023/01/02 03:39:53;;;;;;;18.30;8.73;;;11.10;99.90;;;;;;4913446;29;20040;-87
2023/01/02 03:42:32;;;;;;;16.58;9.00;;;11.10;99.90;;;;;;4902462;29;20406;-88
2023/01/02 03:45:05;;;;;;;20.02;10.65;;;11.00;99.90;;;;;;4894440;29;20142;-87
2023/01/02 03:47:49;;;;;;;18.48;9.40;;;11.10;99.90;;;;;;4904866;29;20094;-88
2023/01/02 03:50:22;;;;;;;20.73;10.57;;;11.10;99.90;;;;;;4898119;29;20127;-88
2023/01/02 03:52:48;;;;;;;16.35;8.57;;;11.10;99.90;;;;;;4903022;29;20048;-88
2023/01/02 03:55:14;;;;;;;22.45;9.60;;;11.20;99.90;;;;;;4897215;29;20045;-88
2023/01/02 03:57:50;;;;;;;;;;;11.20;99.90;;;;;;4884576;29;20040;-88
2023/01/02 04:00:18;;;;;;;16.95;9.82;;;11.20;99.90;;;;;;4901327;29;19948;-88
2023/01/02 04:02:51;;;;;;;25.92;11.02;;;11.10;99.90;;;;;;4892568;29;20126;-88
2023/01/02 04:05:41;;;;;;;18.50;9.35;;;11.20;99.90;;;;;;4899979;29;20074;-88
2023/01/02 04:08:18;;;;;;;17.05;9.43;;;11.20;99.90;;;;;;4893170;29;20044;-88
2023/01/02 04:10:47;;;;;;;15.48;8.20;;;11.10;99.90;;;;;;4913783;29;20504;-88
2023/01/02 04:13:18;;;;;;;25.92;12.20;;;11.20;99.90;;;;;;4914217;29;20044;-88
2023/01/02 04:15:47;;;;;;;17.75;9.18;;;11.20;99.90;;;;;;4897935;29;20052;-88
2023/01/02 04:18:37;;;;;;;21.90;10.65;;;11.10;99.90;;;;;;4916702;29;20138;-88
2023/01/02 04:21:10;;;;;;;18.33;9.48;;;11.20;99.90;;;;;;4902628;29;20396;-88
2023/01/02 04:23:45;;;;;;;22.25;10.20;;;11.20;99.90;;;;;;4896299;29;20044;-88
2023/01/02 04:26:25;;;;;;;15.50;9.30;;;11.20;99.90;;;;;;4904359;29;20413;-87
2023/01/02 04:28:52;;;;;;;19.60;10.45;;;11.20;99.90;;;;;;4895321;29;20039;-88
2023/01/02 04:31:26;;;;;;;21.20;10.98;;;11.20;99.90;;;;;;4889652;29;20421;-87
2023/01/02 04:33:56;;;;;;;23.88;12.07;;;11.20;99.90;;;;;;4898656;29;20039;-88
2023/01/02 04:36:22;;;;;;;17.38;10.18;;;11.20;99.90;;;;;;4903590;29;20036;-88
2023/01/02 04:38:48;;;;;;;20.35;9.70;;;11.20;99.90;;;;;;4892974;29;20067;-89
2023/01/02 04:41:25;;;;;;;18.92;9.95;;;11.20;99.90;;;;;;4891133;29;20043;-88
2023/01/02 04:43:53;;;;;;;18.77;10.95;;;11.30;99.90;;;;;;4901787;29;20051;-88
2023/01/02 04:46:19;;;;;;;20.25;10.15;;;11.30;99.90;;;;;;4877009;29;20052;-88
2023/01/02 04:48:45;;;;;;;;;;;11.20;99.90;;;;;;4892393;29;20040;-88
2023/01/02 04:51:11;;;;;;;17.52;9.55;;;11.20;99.90;;;;;;4901214;29;19919;-88
2023/01/02 04:53:36;;;;;;;13.98;7.45;;;11.20;99.90;;;;;;4898645;29;20050;-88
2023/01/02 04:56:02;;;;;;;15.95;8.32;;;11.20;99.90;;;;;;4871772;29;20036;-87
2023/01/02 04:58:28;;;;;;;13.80;7.30;;;11.30;99.90;;;;;;4881218;29;20044;-88
2023/01/02 05:00:54;;;;;;;16.77;7.30;;;11.30;99.90;;;;;;4885575;29;20044;-86
2023/01/02 05:03:19;;;;;;;13.93;7.13;;;11.30;99.90;;;;;;4887873;29;20044;-86
2023/01/02 05:05:45;;;;;;;13.68;7.32;;;11.20;99.90;;;;;;4884685;29;20130;-86
2023/01/02 05:08:11;;;;;;;13.93;7.50;;;11.30;99.90;;;;;;4884162;29;20489;-85
2023/01/02 05:10:37;;;;;;;15.55;8.20;;;11.20;99.90;;;;;;4886336;29;20099;-86
2023/01/02 05:13:02;;;;;;;15.82;8.30;;;11.20;99.90;;;;;;4890243;29;20083;-86
2023/01/02 05:15:28;;;;;;;15.55;7.65;;;11.10;99.90;;;;;;4879250;29;20044;-86
2023/01/02 05:17:55;;;;;;;16.33;7.63;;;11.10;99.90;;;;;;4866381;29;20071;-85
2023/01/02 05:20:21;;;;;;;19.45;8.88;;;11.10;99.90;;;;;;4884063;29;20119;-85
2023/01/02 05:25:32;;;;;;;14.02;7.82;;;11.10;99.90;;;;;;4889715;29;20476;-85
2023/01/02 05:27:58;;;;;;;15.80;8.25;;;11.00;99.90;;;;;;4892204;29;20103;-86
2023/01/02 05:30:24;;;;;;;19.17;8.25;;;11.00;99.90;;;;;;4868822;29;20044;-85
2023/01/02 05:32:50;;;;;;;14.98;7.78;;;11.00;99.90;;;;;;4868876;29;20557;-86
2023/01/02 05:35:15;;;;;;;15.57;7.80;;;11.00;99.90;;;;;;4898610;29;20071;-86
2023/01/02 05:37:41;;;;;;;13.27;7.30;;;11.10;99.90;;;;;;4914828;29;20035;-86
2023/01/02 05:40:07;;;;;;;14.40;7.82;;;11.10;99.90;;;;;;4884743;29;20795;-86
2023/01/02 05:42:33;;;;;;;15.65;7.65;;;11.10;99.90;;;;;;4898928;29;20524;-86
2023/01/02 05:44:59;;;;;;;15.20;8.20;;;11.10;99.90;;;;;;4896576;29;20099;-86
2023/01/02 05:47:24;;;;;;;16.87;8.57;;;11.10;99.90;;;;;;4890704;29;20134;-86
2023/01/02 05:49:50;;;;;;;15.48;8.18;;;11.10;99.90;;;;;;4894024;29;20283;-86
2023/01/02 05:52:16;;;;;;;16.17;8.50;;;11.10;99.90;;;;;;4892087;29;20036;-86
2023/01/02 05:54:41;;;;;;;17.65;8.70;;;11.10;99.90;;;;;;4882896;29;20481;-86
2023/01/02 05:57:07;;;;;;;19.10;9.57;;;11.00;99.90;;;;;;4874203;29;20039;-86
2023/01/02 05:59:33;;;;;;;16.13;8.33;;;11.00;99.90;;;;;;4878865;29;20115;-86
2023/01/02 06:01:58;;;;;;;23.02;8.75;;;11.00;99.90;;;;;;4884169;29;20277;-86
2023/01/02 06:04:24;;;;;;;19.95;8.88;;;11.00;99.90;;;;;;4868018;29;20513;-86
2023/01/02 06:06:50;;;;;;;15.82;7.70;;;11.00;99.90;;;;;;4882500;29;20151;-86
2023/01/02 06:09:16;;;;;;;16.73;8.88;;;11.00;99.90;;;;;;4883775;29;20039;-86
2023/01/02 06:11:42;;;;;;;13.40;7.57;;;11.00;99.90;;;;;;4883090;29;20425;-86
2023/01/02 06:14:09;;;;;;;20.88;8.98;;;11.00;99.90;;;;;;4891988;29;20756;-86
2023/01/02 06:16:36;;;;;;;13.65;8.18;;;11.00;99.90;;;;;;4874520;29;20044;-85
2023/01/02 06:19:02;;;;;;;11.18;6.75;;;11.00;99.90;;;;;;4879843;29;20114;-87
2023/01/02 06:21:28;;;;;;;11.43;6.15;;;11.00;99.90;;;;;;4876908;29;20032;-85
2023/01/02 06:23:55;;;;;;;10.00;5.38;;;11.00;99.90;;;;;;4870503;29;20090;-86
2023/01/02 06:26:24;;;;;;;8.15;5.00;;;11.00;99.90;;;;;;4895257;29;20127;-86
2023/01/02 06:28:51;;;;;;;10.77;4.43;;;11.00;99.90;;;;;;4890768;29;20059;-84
2023/01/02 06:31:18;;;;;;;7.32;4.20;;;11.00;99.90;;;;;;4877990;29;20457;-85
2023/01/02 06:33:45;;;;;;;5.40;3.28;;;11.00;99.90;;;;;;4875565;29;20055;-85
2023/01/02 06:36:17;;;;;;;5.82;3.40;;;11.00;99.90;;;;;;4905510;29;20040;-85
2023/01/02 06:38:44;;;;;;;5.15;3.00;;;11.00;99.90;;;;;;4896878;29;20043;-83
2023/01/02 06:41:10;;;;;;;4.38;3.17;;;11.00;99.90;;;;;;4883994;29;20098;-84
2023/01/02 06:43:40;;;;;;;;;;;10.90;99.90;;;;;;4875567;29;20123;-85
2023/01/02 06:46:06;;;;;;;5.25;2.88;;;10.90;99.90;;;;;;4889252;29;19922;-91
2023/01/02 06:48:33;;;;;;;4.55;3.15;;;10.90;99.90;;;;;;4868824;29;20051;-89
2023/01/02 06:50:58;;;;;;;5.50;3.53;;;10.90;99.90;;;;;;4896660;29;20096;-88
2023/01/02 06:53:25;;;;;;;5.25;3.42;;;10.90;99.90;;;;;;4876804;29;20493;-90
2023/01/02 06:55:55;;;;;;;7.05;4.13;;;10.90;99.90;;;;;;4886447;29;20036;-90
2023/01/02 06:58:22;;;;;;;6.30;4.25;;;10.90;99.90;;;;;;4882388;29;20040;-88
2023/01/02 07:00:48;;;;;;;;;;;10.90;99.90;;;;;;4865242;29;20032;-87
2023/01/02 07:03:14;;;;;;;8.75;5.03;;;10.90;99.90;;;;;;4887829;29;19938;-87
2023/01/02 07:05:40;;;;;;;;;;;10.90;99.90;;;;;;4878247;29;20075;-88
2023/01/02 07:08:06;;;;;;;6.22;4.53;;;10.80;99.90;;;;;;4893137;29;19926;-89
2023/01/02 07:10:32;;;;;;;8.13;4.47;;;10.70;99.90;;;;;;4870402;29;20051;-88
2023/01/02 07:12:58;;;;;;;7.80;4.80;;;10.60;99.90;;;;;;4885684;29;20464;-90
2023/01/02 07:15:23;;;;;;;8.30;4.97;;;10.60;99.90;;;;;;4872268;29;20048;-88
2023/01/02 07:17:49;;;;;;;9.13;3.92;;;10.50;99.90;;;;;;4865604;29;20033;-90
2023/01/02 07:20:15;;;;;;;6.85;3.72;;;10.20;99.90;;;;;;4882097;29;20039;-87
2023/01/02 07:22:40;;;;;;;10.05;4.13;;;9.90;99.90;;;;;;4887513;29;20048;-86
2023/01/02 07:25:07;;;;;;;8.30;4.00;;;9.80;99.90;;;;;;4866661;29;20036;-84
2023/01/02 07:27:33;;;;;;;6.45;3.17;;;9.70;99.90;;;;;;4875442;29;20363;-84
2023/01/02 07:29:58;;;;;;;7.07;2.83;;;9.60;99.90;;;;;;4875869;29;20048;-84
2023/01/02 07:32:24;;;;;;;4.78;2.47;;;9.50;99.90;;;;;;4891591;29;20040;-84
2023/01/02 07:34:50;;;;;;;3.45;0.93;;;9.40;99.90;;;;;;4888420;29;20087;-82
2023/01/02 07:37:16;;;;;;;2.65;0.40;;;9.30;99.90;;;;;;4894740;29;20035;-82
2023/01/02 07:39:42;;;;;;;1.73;0.40;;;9.10;99.90;;;;;;4893364;29;20055;-82
2023/01/02 07:42:08;;;;;;;3.17;0.50;;;9.00;99.90;;;;;;4869012;29;20044;-82
2023/01/02 07:44:33;;;;;;;2.40;0.67;;;8.90;99.90;;;;;;4866457;29;20725;-83
2023/01/02 07:46:59;;;;;;;2.00;0.70;;;8.90;99.90;;;;;;4893744;29;20292;-83
2023/01/02 07:49:25;;;;;;;1.52;0.50;;;8.80;99.90;;;;;;4891173;29;20287;-83
2023/01/02 07:51:50;;;;;;;2.85;0.57;;;8.70;99.90;;;;;;4866567;29;20118;-83
2023/01/02 07:54:16;;;;;;;2.42;0.50;;;8.70;99.90;;;;;;4891175;29;20095;-83
2023/01/02 07:56:42;;;;;;;0.95;0.40;;;8.70;99.90;;;;;;4868214;29;20032;-83
2023/01/02 07:59:08;;;;;;;2.83;0.60;;;8.60;99.90;;;;;;4869420;29;20453;-83
2023/01/02 08:01:33;;;;;;;0.93;0.60;;;8.50;99.90;;;;;;4868894;29;20352;-84
2023/01/02 08:03:59;;;;;;;2.88;0.55;;;8.60;99.90;;;;;;4908127;29;20400;-84
2023/01/02 08:06:25;;;;;;;2.78;0.60;;;9.10;99.90;;;;;;4880073;29;20123;-84
2023/01/02 08:08:51;;;;;;;1.70;0.63;;;8.60;99.90;;;;;;4878707;29;20471;-83
2023/01/02 08:11:18;;;;;;;2.83;0.75;;;8.50;99.90;;;;;;4867343;29;20047;-83
2023/01/02 08:13:44;;;;;;;4.53;0.88;;;8.50;99.90;;;;;;4887360;29;20065;-84
2023/01/02 08:16:20;;;;;;;4.18;1.13;;;8.50;99.90;;;;;;4878459;29;20037;-84
2023/01/02 08:18:47;;;;;;;3.60;1.10;;;8.50;99.90;;;;;;4893326;29;20032;-83
2023/01/02 08:21:13;;;;;;;4.78;1.15;;;8.40;99.90;;;;;;4909474;29;20068;-84
2023/01/02 08:23:39;;;;;;;6.22;1.30;;;8.50;99.90;;;;;;4895542;29;20042;-83
2023/01/02 08:26:08;;;;;;;3.00;1.20;;;8.50;99.90;;;;;;4887246;29;20044;-84
2023/01/02 08:28:35;;;;;;;2.92;1.00;;;8.50;99.90;;;;;;4891779;29;20044;-84
2023/01/02 08:31:06;;;;;;;3.47;0.95;;;8.50;99.90;;;;;;4885913;29;20052;-84
2023/01/02 08:33:32;;;;;;;2.58;0.90;;;8.50;99.90;;;;;;4884258;29;20070;-84
2023/01/02 08:35:57;;;;;;;5.53;1.10;;;8.50;99.90;;;;;;4881298;29;20020;-84
2023/01/02 08:38:23;;;;;;;5.40;1.30;;;8.50;99.90;;;;;;4889871;29;20076;-84
2023/01/02 08:40:50;;;;;;;3.08;1.30;;;8.50;99.90;;;;;;4881050;29;20028;-84
2023/01/02 08:43:15;;;;;;;3.10;1.20;;;8.50;99.90;;;;;;4885876;29;20040;-83
2023/01/02 08:45:41;;;;;;;5.32;1.23;;;8.50;99.90;;;;;;4885426;29;20040;-84
2023/01/02 08:48:07;;;;;;;3.27;1.20;;;8.50;99.90;;;;;;4878424;29;20083;-84
2023/01/02 08:50:32;;;;;;;2.97;1.23;;;8.40;99.90;;;;;;4898088;29;20311;-84
2023/01/02 08:52:58;;;;;;;3.17;1.00;;;8.50;99.90;;;;;;4931962;29;20328;-83
2023/01/02 08:55:24;;;;;;;4.03;1.33;;;8.40;99.90;;;;;;4904662;29;20319;-83
2023/01/02 08:57:49;;;;;;;2.77;1.37;;;8.50;99.90;;;;;;4892669;29;20031;-86
2023/01/02 09:00:15;;;;;;;7.40;1.53;;;8.50;99.90;;;;;;4870529;29;20287;-88
2023/01/02 09:02:41;;;;;;;4.70;1.52;;;8.50;99.90;;;;;;4904266;29;20303;-88
2023/01/02 09:05:07;;;;;;;2.93;1.37;;;8.50;99.90;;;;;;4873173;29;20127;-92
2023/01/02 09:07:33;;;;;;;4.97;1.80;;;8.50;99.90;;;;;;4875070;29;20040;-90
2023/01/02 09:09:58;;;;;;;2.80;1.20;;;8.60;99.90;;;;;;4880957;29;20045;-93
2023/01/02 09:12:24;;;;;;;4.28;1.27;;;7.70;99.90;;;;;;4868296;29;20050;-89
2023/01/02 09:14:50;;;;;;;3.85;1.55;;;8.50;99.90;;;;;;4908563;29;20051;-92
2023/01/02 09:17:16;;;;;;;4.22;1.40;;;8.50;99.90;;;;;;4898486;29;20035;-91
2023/01/02 09:19:43;;;;;;;3.45;1.73;;;8.50;99.90;;;;;;4896472;29;20535;-89
2023/01/02 09:22:09;;;;;;;5.00;1.30;;;8.50;99.90;;;;;;4888237;29;20044;-90
2023/01/02 09:24:35;;;;;;;3.22;1.42;;;8.50;99.90;;;;;;4900767;29;20393;-88
2023/01/02 09:27:01;;;;;;;3.08;1.20;;;8.50;99.90;;;;;;4874862;29;20051;-90
2023/01/02 09:29:27;;;;;;;4.80;1.60;;;8.60;99.90;;;;;;4884700;29;20485;-90
2023/01/02 09:31:52;;;;;;;4.40;1.20;;;8.60;99.90;;;;;;4896422;29;20135;-89
2023/01/02 09:34:18;;;;;;;4.50;1.10;;;8.60;99.90;;;;;;4883157;29;20796;-88
2023/01/02 09:36:46;;;;;;;2.40;1.52;;;8.60;99.90;;;;;;4913709;29;20036;-88
2023/01/02 09:39:12;;;;;;;3.47;1.63;;;8.60;99.90;;;;;;4890284;29;20508;-88
2023/01/02 09:41:43;;;;;;;;;;;8.70;99.90;;;;;;4881796;29;20044;-89
2023/01/02 09:44:20;;;;;;;3.42;1.40;;;8.70;99.90;;;;;;4894782;29;20398;-90
2023/01/02 09:46:52;;;;;;;;;;;8.70;99.90;;;;;;4898077;29;20484;-90
2023/01/02 09:49:33;;;;;;;3.38;1.40;;;8.70;99.90;;;;;;4908075;29;19919;-89
2023/01/02 09:51:59;;;;;;;2.28;1.45;;;8.70;99.90;;;;;;4895330;29;20129;-89
2023/01/02 09:54:30;;;;;;;3.55;1.33;;;8.70;99.90;;;;;;4870421;29;20504;-89
2023/01/02 09:57:27;;;;;;;3.30;1.58;;;8.70;99.90;;;;;;4910881;29;20059;-89
2023/01/02 10:00:11;;;;;;;4.28;1.45;;;8.70;99.90;;;;;;4897868;29;20660;-89
2023/01/02 10:02:42;;;;;;;5.55;1.70;;;8.70;99.90;;;;;;4909516;29;20040;-89
2023/01/02 10:05:35;;;;;;;4.95;2.15;;;8.70;99.90;;;;;;4907036;29;20043;-89
2023/01/02 10:08:23;;;;;;;7.13;1.98;;;8.70;99.90;;;;;;4897665;29;20500;-89
2023/01/02 10:11:03;;;;;;;4.40;2.10;;;8.70;99.90;;;;;;4899840;29;20035;-87
2023/01/02 10:13:48;;;;;;;5.65;2.03;;;8.70;99.90;;;;;;4893520;29;20394;-91
2023/01/02 10:16:20;;;;;;;8.25;2.38;;;8.70;99.90;;;;;;4902286;29;20122;-91
2023/01/02 10:18:51;;;;;;;5.22;1.95;;;8.70;99.90;;;;;;4910731;29;20044;-89
2023/01/02 10:21:27;;;;;;;5.63;2.17;;;8.70;99.90;;;;;;4898376;29;20032;-90
2023/01/02 10:24:02;;;;;;;5.32;2.28;;;8.70;99.90;;;;;;4893976;29;20147;-93
2023/01/02 10:26:34;;;;;;;5.80;2.40;;;8.70;99.90;;;;;;4911432;29;20106;-90
2023/01/02 10:29:05;;;;;;;5.05;2.25;;;8.70;99.90;;;;;;4898590;29;20368;-87
2023/01/02 10:31:45;;;;;;;4.07;1.90;;;8.70;99.90;;;;;;4892636;29;20453;-87
2023/01/02 10:34:17;;;;;;;4.93;1.90;;;8.80;99.90;;;;;;4896958;29;20051;-85
2023/01/02 10:36:45;;;;;;;3.55;1.88;;;8.70;99.90;;;;;;4910362;29;20039;-85
2023/01/02 10:39:17;;;;;;;4.43;1.60;;;8.70;99.90;;;;;;4886301;29;20058;-86
2023/01/02 10:41:46;;;;;;;5.35;1.83;;;8.70;99.90;;;;;;4892828;29;20087;-86
2023/01/02 10:44:31;;;;;;;5.18;1.75;;;8.80;99.90;;;;;;4906659;29;20107;-85
2023/01/02 10:46:58;;;;;;;2.70;1.27;;;8.70;99.90;;;;;;4892414;29;20071;-84
2023/01/02 10:49:26;;;;;;;3.28;1.40;;;8.70;99.90;;;;;;4882372;29;20040;-85
2023/01/02 10:52:10;;;;;;;3.33;1.55;;;8.70;99.90;;;;;;4896774;29;20044;-84
2023/01/02 10:54:55;;;;;;;7.05;1.63;;;8.70;99.90;;;;;;4913297;29;20043;-85
2023/01/02 10:57:25;;;;;;;3.65;1.60;;;8.80;99.90;;;;;;4889399;29;20052;-84
2023/01/02 10:59:59;;;;;;;4.03;1.88;;;8.70;99.90;;;;;;4892285;29;20461;-85
2023/01/02 11:02:35;;;;;;;3.85;1.50;;;8.70;99.90;;;;;;4883086;29;20044;-86
2023/01/02 11:05:03;;;;;;;4.57;1.20;;;8.80;99.90;;;;;;4892871;29;20036;-84
2023/01/02 11:07:33;;;;;;;6.00;1.20;;;8.90;99.90;;;;;;4910568;29;20099;-84
2023/01/02 11:09:59;;;;;;;4.25;1.33;;;8.90;99.90;;;;;;4894783;29;20046;-83
2023/01/02 11:12:24;;;;;;;3.17;1.40;;;9.00;99.90;;;;;;4888529;29;20044;-84
2023/01/02 11:14:51;;;;;;;4.82;1.30;;;9.00;99.90;;;;;;4888800;29;20430;-85
2023/01/02 11:17:20;;;;;;;3.53;1.33;;;9.10;99.90;;;;;;4869662;29;20040;-85
2023/01/02 11:19:49;;;;;;;3.28;1.65;;;9.10;99.90;;;;;;4898573;29;20416;-85
2023/01/02 11:22:18;;;;;;;3.95;1.27;;;9.20;99.90;;;;;;4905549;29;20040;-85
2023/01/02 11:24:56;;;;;;;4.82;1.48;;;9.20;99.90;;;;;;4889210;29;20120;-85
2023/01/02 11:27:27;;;;;;;4.00;1.25;;;9.30;99.90;;;;;;4889642;29;20040;-85
2023/01/02 11:29:52;;;;;;;4.13;1.33;;;9.40;99.90;;;;;;4881837;29;20044;-85
2023/01/02 11:32:37;;;;;;;4.47;1.15;;;9.50;99.90;;;;;;4868206;29;20059;-85
2023/01/02 11:35:03;;;;;;;3.90;1.63;;;9.70;99.90;;;;;;4896150;29;20396;-84
2023/01/02 11:37:30;;;;;;;3.03;1.20;;;10.00;99.90;;;;;;4895645;29;20036;-85
2023/01/02 11:40:05;;;;;;;2.92;1.42;;;10.40;99.90;;;;;;4888890;29;20035;-86
2023/01/02 11:45:28;;;;;;;3.92;1.38;;;10.80;99.90;;;;;;4909542;29;21275;-83
2023/01/02 11:48:00;;;;;;;4.43;1.17;;;10.90;99.90;;;;;;4896179;29;20404;-83
2023/01/02 11:50:29;;;;;;;4.55;1.30;;;11.00;99.90;;;;;;4883692;29;20079;-83
2023/01/02 11:53:01;;;;;;;2.35;1.25;;;11.20;99.90;;;;;;4898888;29;20119;-84
2023/01/02 11:55:46;;;;;;;4.03;1.27;;;11.40;99.90;;;;;;4900723;29;20040;-80
2023/01/02 11:58:41;;;;;;;3.90;1.35;;;11.50;99.90;;;;;;4912160;29;20047;-80
2023/01/02 12:01:31;;;;;;;5.93;1.33;;;11.40;99.90;;;;;;4895981;29;20143;-89
2023/01/02 12:03:58;;;;;;;3.25;1.38;;;11.00;99.90;;;;;;4907654;29;20072;-87
2023/01/02 12:06:51;;;;;;;3.55;1.40;;;10.80;99.90;;;;;;4871323;29;20051;-87
2023/01/02 12:09:31;;;;;;;5.30;1.17;;;10.50;99.90;;;;;;4878253;29;20561;-85
2023/01/02 12:12:17;;;;;;;6.78;1.17;;;10.30;99.90;;;;;;4893234;29;20068;-85
2023/01/02 12:15:07;;;;;;;4.43;1.40;;;10.20;99.90;;;;;;4860856;29;20060;-86
2023/01/02 12:18:00;;;;;;;4.00;1.13;;;10.00;99.90;;;;;;4878849;29;20108;-88
2023/01/02 12:20:32;;;;;;;4.15;1.10;;;9.80;99.90;;;;;;4877118;29;20393;-88
2023/01/02 12:22:57;;;;;;;3.92;1.00;;;9.70;99.90;;;;;;4870286;29;20109;-88
2023/01/02 12:25:32;;;;;;;6.50;1.10;;;9.70;99.90;;;;;;4877547;29;20069;-89
2023/01/02 12:28:37;;;;;;;5.72;1.30;;;9.60;99.90;;;;;;4876380;29;20040;-90
2023/01/02 12:31:40;;;;;;;8.15;1.33;;;9.50;99.90;;;;;;4876637;29;20115;-90
2023/01/02 12:34:41;;;;;;;12.68;1.52;;;9.50;99.90;;;;;;4891943;29;20492;-88
2023/01/02 12:37:19;;;;;;;8.13;1.50;;;9.50;99.90;;;;;;4878270;29;20036;-88
2023/01/02 12:40:03;;;;;;;4.47;1.50;;;9.40;99.90;;;;;;4869420;29;20040;-92
2023/01/02 12:42:51;;;;;;;12.27;2.47;;;9.40;99.90;;;;;;4880010;29;20076;-91
2023/01/02 12:45:56;;;;;;;6.22;1.00;;;9.50;99.90;;;;;;4899970;29;20036;-89
2023/01/02 12:48:24;;;;;;;6.47;1.35;;;9.50;99.90;;;;;;4863037;29;20449;-89
2023/01/02 12:51:11;;;;;;;4.63;0.90;;;9.50;99.90;;;;;;4874294;29;20077;-89
2023/01/02 12:53:57;;;;;;;6.63;2.20;;;9.50;99.90;;;;;;4886815;29;20044;-88
2023/01/02 12:56:43;;;;;;;7.25;1.15;;;9.50;99.90;;;;;;4859277;29;20040;-89
2023/01/02 12:59:35;;;;;;;8.30;2.00;;;9.40;99.90;;;;;;4889884;29;20037;-89
2023/01/02 13:02:21;;;;;;;5.57;1.10;;;9.40;99.90;;;;;;4872555;29;20045;-90
2023/01/02 13:04:55;;;;;;;6.93;1.27;;;9.40;99.90;;;;;;4858171;29;20453;-89
2023/01/02 13:07:38;;;;;;;5.75;1.23;;;9.40;99.90;;;;;;4891719;29;20096;-89
2023/01/02 13:10:06;;;;;;;8.15;1.40;;;9.40;99.90;;;;;;4907971;29;20068;-89
2023/01/02 13:12:34;;;;;;;4.78;1.13;;;9.40;99.90;;;;;;4879673;29;20040;-87
2023/01/02 13:15:15;;;;;;;6.75;1.20;;;9.40;99.90;;;;;;4901914;29;20126;-91
2023/01/02 13:17:50;;;;;;;10.38;1.85;;;9.40;99.90;;;;;;4897939;29;20047;-89